createdAt,value
2019-04-16T00:00:01.880Z,13
2019-04-16T00:05:01.806Z,18
2019-04-16T00:10:01.619Z,16
2019-04-16T00:15:01.440Z,16
2019-04-16T00:20:05.909Z,13
2019-04-16T00:25:02.205Z,18
2019-04-16T00:30:05.099Z,17
2019-04-16T00:35:01.762Z,17
2019-04-16T00:40:01.798Z,16
2019-04-16T00:45:02.153Z,15
2019-04-16T00:50:01.522Z,15
2019-04-16T00:55:01.883Z,13
2019-04-16T01:00:02.280Z,14
2019-04-16T01:05:01.893Z,14
2019-04-16T01:10:01.763Z,16
2019-04-16T01:15:01.822Z,14
2019-04-16T01:20:02.271Z,14
2019-04-16T01:25:01.612Z,15
2019-04-16T01:30:04.922Z,16
2019-04-16T01:35:01.564Z,13
2019-04-16T01:40:01.338Z,16
2019-04-16T01:45:02.055Z,16
2019-04-16T01:50:01.556Z,13
2019-04-16T01:55:01.896Z,13
2019-04-16T02:00:06.806Z,13
2019-04-16T02:05:01.685Z,14
2019-04-16T02:10:06.289Z,15
2019-04-16T02:15:01.544Z,14
2019-04-16T02:20:05.719Z,13
2019-04-16T02:25:02.290Z,11
2019-04-16T02:30:02.666Z,15
2019-04-16T02:35:02.020Z,13
2019-04-16T02:40:01.905Z,14
2019-04-16T02:45:02.285Z,13
2019-04-16T02:50:01.730Z,14
2019-04-16T02:55:08.102Z,15
2019-04-16T03:00:01.383Z,13
2019-04-16T03:05:02.029Z,12
2019-04-16T03:10:02.070Z,14
2019-04-16T03:15:02.456Z,12
2019-04-16T03:20:02.262Z,14
2019-04-16T03:25:01.603Z,13
2019-04-16T03:30:03.369Z,16
2019-04-16T03:35:01.935Z,13
2019-04-16T03:40:15.191Z,15
2019-04-16T03:45:02.333Z,14
2019-04-16T03:50:01.668Z,13
2019-04-16T03:55:02.016Z,14
2019-04-16T04:00:01.349Z,11
2019-04-16T04:05:06.385Z,15
2019-04-16T04:10:01.961Z,11
2019-04-16T04:15:01.929Z,11
2019-04-16T04:20:01.421Z,12
2019-04-16T04:25:04.392Z,14
2019-04-16T04:30:01.925Z,12
2019-04-16T04:35:01.910Z,13
2019-04-16T04:40:01.767Z,14
2019-04-16T04:45:02.150Z,14
2019-04-16T04:50:03.546Z,13
2019-04-16T04:55:01.651Z,12
2019-04-16T05:00:02.000Z,14
2019-04-16T05:05:01.690Z,14
2019-04-16T05:10:01.523Z,10
2019-04-16T05:15:03.876Z,12
2019-04-16T05:20:01.573Z,11
2019-04-16T05:25:02.506Z,17
2019-04-16T05:30:02.000Z,13
2019-04-16T05:35:01.324Z,16
2019-04-16T05:40:02.152Z,11
2019-04-16T05:45:02.535Z,12
2019-04-16T05:50:01.705Z,14
2019-04-16T05:55:02.082Z,11
2019-04-16T06:00:03.260Z,13
2019-04-16T06:05:02.329Z,12
2019-04-16T06:10:02.114Z,11
2019-04-16T06:15:02.150Z,10
2019-04-16T06:20:01.648Z,12
2019-04-16T06:25:08.503Z,15
2019-04-16T06:30:02.348Z,13
2019-04-16T06:35:01.791Z,11
2019-04-16T06:40:01.930Z,13
2019-04-16T06:45:04.911Z,13
2019-04-16T06:50:02.207Z,13
2019-04-16T06:55:03.685Z,12
2019-04-16T07:00:02.387Z,11
2019-04-16T07:05:02.070Z,13
2019-04-16T07:10:01.935Z,11
2019-04-16T07:15:02.037Z,15
2019-04-16T07:20:04.460Z,12
2019-04-16T07:25:04.484Z,15
2019-04-16T07:30:06.734Z,12
2019-04-16T07:35:01.721Z,13
2019-04-16T07:40:01.580Z,12
2019-04-16T07:45:01.927Z,12
2019-04-16T07:50:02.571Z,11
2019-04-16T07:55:01.962Z,11
2019-04-16T08:00:01.359Z,10
2019-04-16T08:05:07.461Z,11
2019-04-16T08:10:02.773Z,9
2019-04-16T08:15:13.812Z,10
2019-04-16T08:20:01.357Z,10
2019-04-16T08:25:03.824Z,12
2019-04-16T08:30:03.355Z,13
2019-04-16T08:35:01.903Z,12
2019-04-16T08:40:01.734Z,12
2019-04-16T08:45:07.587Z,9
2019-04-16T08:50:01.816Z,16
2019-04-16T08:55:02.202Z,12
2019-04-16T09:00:01.690Z,12
2019-04-16T09:05:05.917Z,35
2019-04-16T09:10:10.137Z,24
2019-04-16T09:15:01.329Z,62
2019-04-16T09:20:04.816Z,21
2019-04-16T09:25:01.545Z,15
2019-04-16T09:30:01.924Z,19
2019-04-16T09:35:09.669Z,22
2019-04-16T09:40:15.547Z,19
2019-04-16T09:45:01.759Z,14
2019-04-16T09:50:02.216Z,20
2019-04-16T09:55:01.541Z,20
2019-04-16T10:00:01.845Z,19
2019-04-16T10:05:01.460Z,24
2019-04-16T10:10:02.301Z,21
2019-04-16T10:15:02.175Z,27
2019-04-16T10:20:01.371Z,20
2019-04-16T10:25:01.798Z,18
2019-04-16T10:30:02.166Z,16
2019-04-16T10:35:01.529Z,22
2019-04-16T10:40:04.581Z,23
2019-04-16T10:45:02.278Z,19
2019-04-16T10:50:01.638Z,20
2019-04-16T10:55:02.059Z,19
2019-04-16T11:00:01.647Z,52
2019-04-16T11:05:03.180Z,16
2019-04-16T11:10:02.103Z,25
2019-04-16T11:15:01.876Z,17
2019-04-16T11:20:01.338Z,17
2019-04-16T11:25:01.716Z,17
2019-04-16T11:30:02.138Z,32
2019-04-16T11:35:01.498Z,47
2019-04-16T11:40:02.318Z,24
2019-04-16T11:45:01.680Z,16
2019-04-16T11:50:02.060Z,33
2019-04-16T11:55:01.450Z,26
2019-04-16T12:00:07.747Z,94
2019-04-16T12:05:02.073Z,20
2019-04-16T12:10:02.464Z,17
2019-04-16T12:15:01.897Z,22
2019-04-16T12:20:01.414Z,25
2019-04-16T12:25:02.029Z,41
2019-04-16T12:30:01.874Z,27
2019-04-16T12:35:01.964Z,23
2019-04-16T12:40:01.927Z,17
2019-04-16T12:45:01.940Z,22
2019-04-16T12:50:01.389Z,22
2019-04-16T12:55:01.935Z,22
2019-04-16T13:00:01.393Z,19
2019-04-16T13:05:02.325Z,28
2019-04-16T13:10:02.318Z,25
2019-04-16T13:15:02.143Z,46
2019-04-16T13:20:02.231Z,21
2019-04-16T13:25:01.680Z,31
2019-04-16T13:30:03.012Z,28
2019-04-16T13:35:02.130Z,24
2019-04-16T13:40:01.984Z,20
2019-04-16T13:45:15.826Z,21
2019-04-16T13:50:03.511Z,22
2019-04-16T13:55:02.231Z,25
2019-04-16T14:00:04.717Z,24
2019-04-16T14:05:04.267Z,31
2019-04-16T14:10:02.008Z,20
2019-04-16T14:15:05.781Z,40
2019-04-16T14:20:01.326Z,33
2019-04-16T14:25:01.732Z,25
2019-04-16T14:30:02.158Z,28
2019-04-16T14:35:01.472Z,24
2019-04-16T14:40:02.325Z,22
2019-04-16T14:45:06.308Z,21
2019-04-16T14:50:02.174Z,36
2019-04-16T14:55:01.732Z,23
2019-04-16T15:00:02.125Z,28
2019-04-16T15:05:01.777Z,25
2019-04-16T15:10:02.846Z,63
2019-04-16T15:15:01.702Z,35
2019-04-16T15:20:02.152Z,33
2019-04-16T15:25:01.502Z,22
2019-04-16T15:30:01.871Z,24
2019-04-16T15:35:02.253Z,26
2019-04-16T15:40:06.984Z,39
2019-04-16T15:45:01.721Z,45
2019-04-16T15:50:02.346Z,27
2019-04-16T15:55:02.037Z,73
2019-04-16T16:00:01.378Z,30
2019-04-16T16:05:02.044Z,26
2019-04-16T16:10:01.856Z,20
2019-04-16T16:15:07.403Z,25
2019-04-16T16:20:02.206Z,41
2019-04-16T16:25:05.359Z,31
2019-04-16T16:30:02.344Z,38
2019-04-16T16:35:01.684Z,23
2019-04-16T16:40:01.446Z,49
2019-04-16T16:45:03.006Z,21
2019-04-16T16:50:01.730Z,28
2019-04-16T16:55:02.114Z,24
2019-04-16T17:00:01.418Z,28
2019-04-16T17:05:02.073Z,24
2019-04-16T17:10:01.867Z,23
2019-04-16T17:15:02.243Z,49
2019-04-16T17:20:02.134Z,22
2019-04-16T17:25:01.574Z,28
2019-04-16T17:30:01.959Z,23
2019-04-16T17:35:02.328Z,34
2019-04-16T17:40:02.134Z,24
2019-04-16T17:45:01.480Z,24
2019-04-16T17:50:03.733Z,27
2019-04-16T17:55:01.838Z,18
2019-04-16T18:00:04.720Z,35
2019-04-16T18:05:01.345Z,27
2019-04-16T18:10:02.514Z,19
2019-04-16T18:15:07.173Z,19
2019-04-16T18:20:02.309Z,20
2019-04-16T18:25:01.680Z,175
2019-04-16T18:30:05.190Z,178
2019-04-16T18:35:01.623Z,89
2019-04-16T18:40:05.047Z,223
2019-04-16T18:45:01.523Z,121
2019-04-16T18:50:01.886Z,87
2019-04-16T18:55:02.277Z,99
2019-04-16T19:00:01.563Z,75
2019-04-16T19:05:02.195Z,51
2019-04-16T19:10:01.968Z,52
2019-04-16T19:15:02.374Z,45
2019-04-16T19:20:04.619Z,48
2019-04-16T19:25:02.255Z,41
2019-04-16T19:30:01.612Z,38
2019-04-16T19:35:10.138Z,32
2019-04-16T19:40:02.418Z,39
2019-04-16T19:45:01.897Z,29
2019-04-16T19:50:01.439Z,35
2019-04-16T19:55:02.132Z,34
2019-04-16T20:00:01.749Z,30
2019-04-16T20:05:01.736Z,28
2019-04-16T20:10:01.549Z,26
2019-04-16T20:15:02.199Z,31
2019-04-16T20:20:01.680Z,24
2019-04-16T20:25:02.052Z,49
2019-04-16T20:30:01.763Z,31
2019-04-16T20:35:02.156Z,38
2019-04-16T20:40:01.922Z,138
2019-04-16T20:45:02.301Z,49
2019-04-16T20:50:04.198Z,25
2019-04-16T20:55:02.212Z,44
2019-04-16T21:00:01.698Z,38
2019-04-16T21:05:02.693Z,25
2019-04-16T21:10:03.940Z,45
2019-04-16T21:15:01.928Z,25
2019-04-16T21:20:01.821Z,30
2019-04-16T21:25:02.240Z,29
2019-04-16T21:30:03.870Z,53
2019-04-16T21:35:05.785Z,28
2019-04-16T21:40:01.540Z,28
2019-04-16T21:45:02.310Z,27
2019-04-16T21:50:01.766Z,28
2019-04-16T21:55:04.353Z,23
2019-04-16T22:00:02.369Z,26
2019-04-16T22:05:02.015Z,25
2019-04-16T22:10:02.136Z,32
2019-04-16T22:15:02.135Z,27
2019-04-16T22:20:04.077Z,25
2019-04-16T22:25:02.094Z,27
2019-04-16T22:30:01.744Z,22
2019-04-16T22:35:02.341Z,48
2019-04-16T22:40:02.461Z,24
2019-04-16T22:45:02.424Z,28
2019-04-16T22:50:15.035Z,30
2019-04-16T22:55:01.509Z,28
2019-04-16T23:00:01.979Z,30
2019-04-16T23:05:01.616Z,23
2019-04-16T23:10:01.917Z,25
2019-04-16T23:15:01.362Z,30
2019-04-16T23:20:01.862Z,22
2019-04-16T23:25:02.268Z,23
2019-04-16T23:30:01.627Z,30
2019-04-16T23:35:02.001Z,25
2019-04-16T23:40:01.802Z,23
2019-04-16T23:45:02.168Z,32
2019-04-16T23:50:01.512Z,22
2019-04-16T23:55:01.895Z,24
